createdAt,value
2018-03-26T00:02:23.760Z,23.27
2018-03-26T00:04:51.518Z,24.23
2018-03-26T00:07:19.391Z,23.10
2018-03-26T00:09:47.051Z,21.80
2018-03-26T00:12:14.918Z,23.17
2018-03-26T00:14:42.683Z,25.20
2018-03-26T00:17:10.550Z,24.43
2018-03-26T00:19:38.267Z,27.07
2018-03-26T00:22:06.078Z,24.40
2018-03-26T00:24:33.848Z,24.83
2018-03-26T00:27:01.708Z,25.63
2018-03-26T00:29:29.432Z,24.27
2018-03-26T00:31:57.238Z,26.70
2018-03-26T00:34:25.002Z,26.00
2018-03-26T00:36:52.767Z,24.97
2018-03-26T00:39:20.534Z,27.37
2018-03-26T00:41:48.288Z,24.80
2018-03-26T00:44:16.033Z,24.47
2018-03-26T00:46:43.836Z,24.93
2018-03-26T00:49:11.553Z,27.73
2018-03-26T00:51:39.455Z,25.27
2018-03-26T00:54:07.219Z,26.50
2018-03-26T00:56:35.088Z,24.97
2018-03-26T00:59:02.849Z,24.93
2018-03-26T01:01:30.673Z,26.13
2018-03-26T01:03:58.587Z,24.40
2018-03-26T01:06:26.438Z,25.07
2018-03-26T01:08:54.318Z,23.90
2018-03-26T01:11:22.189Z,26.93
2018-03-26T01:13:49.907Z,24.97
2018-03-26T01:16:17.603Z,25.13
2018-03-26T01:18:45.376Z,25.90
2018-03-26T01:21:13.141Z,26.47
2018-03-26T01:23:40.849Z,26.17
2018-03-26T01:26:08.670Z,25.63
2018-03-26T01:28:36.386Z,25.83
2018-03-26T01:31:04.205Z,26.80
2018-03-26T01:33:32.066Z,25.67
2018-03-26T01:35:59.780Z,25.73
2018-03-26T01:38:27.594Z,25.87
2018-03-26T01:40:55.461Z,24.07
2018-03-26T01:43:23.331Z,24.57
2018-03-26T01:45:51.095Z,24.93
2018-03-26T01:48:18.965Z,26.63
2018-03-26T01:50:46.779Z,24.33
2018-03-26T01:53:14.650Z,25.10
2018-03-26T01:55:42.564Z,24.57
2018-03-26T01:58:10.426Z,25.90
2018-03-26T02:00:38.158Z,25.83
2018-03-26T02:03:05.912Z,26.50
2018-03-26T02:05:33.719Z,26.30
2018-03-26T02:08:01.598Z,26.73
2018-03-26T02:10:29.350Z,27.60
2018-03-26T02:12:57.217Z,30.20
2018-03-26T02:15:24.943Z,28.73
2018-03-26T02:17:52.686Z,32.17
2018-03-26T02:20:20.511Z,29.40
2018-03-26T02:22:48.377Z,31.83
2018-03-26T02:25:16.111Z,28.73
2018-03-26T02:27:43.807Z,28.97
2018-03-26T02:30:11.673Z,29.87
2018-03-26T02:32:39.537Z,30.23
2018-03-26T02:35:07.254Z,31.00
2018-03-26T02:37:35.377Z,30.20
2018-03-26T02:40:03.035Z,31.33
2018-03-26T02:42:30.800Z,35.40
2018-03-26T02:44:58.525Z,33.90
2018-03-26T02:47:26.329Z,30.13
2018-03-26T02:49:54.060Z,35.67
2018-03-26T02:52:21.817Z,33.00
2018-03-26T02:54:49.599Z,36.67
2018-03-26T02:57:17.353Z,32.60
2018-03-26T02:59:45.151Z,34.20
2018-03-26T03:02:13.026Z,32.97
2018-03-26T03:04:40.782Z,30.90
2018-03-26T03:07:08.557Z,28.40
2018-03-26T03:09:36.206Z,28.97
2018-03-26T03:12:04.025Z,29.93
2018-03-26T03:14:31.851Z,30.87
2018-03-26T03:16:59.706Z,32.53
2018-03-26T03:19:27.573Z,33.20
2018-03-26T03:21:55.440Z,29.90
2018-03-26T03:24:23.204Z,31.20
2018-03-26T03:26:51.022Z,28.10
2018-03-26T03:29:18.838Z,30.30
2018-03-26T03:31:46.703Z,28.77
2018-03-26T03:34:14.366Z,27.10
2018-03-26T03:36:42.128Z,28.10
2018-03-26T03:39:09.858Z,27.93
2018-03-26T03:41:37.600Z,32.27
2018-03-26T03:44:05.387Z,31.17
2018-03-26T03:46:33.129Z,29.87
2018-03-26T03:49:01.053Z,29.13
2018-03-26T03:51:28.715Z,31.10
2018-03-26T03:53:56.582Z,33.10
2018-03-26T03:56:24.300Z,32.83
2018-03-26T03:58:52.040Z,32.03
2018-03-26T04:01:19.786Z,33.50
2018-03-26T04:03:47.536Z,29.97
2018-03-26T04:06:15.306Z,33.60
2018-03-26T04:08:43.228Z,31.17
2018-03-26T04:11:11.035Z,34.13
2018-03-26T04:13:38.907Z,33.43
2018-03-26T04:16:06.633Z,36.43
2018-03-26T04:18:34.433Z,35.63
2018-03-26T04:21:02.196Z,33.60
2018-03-26T04:23:30.034Z,34.13
2018-03-26T04:25:57.767Z,34.43
2018-03-26T04:28:25.592Z,36.70
2018-03-26T04:30:53.336Z,32.10
2018-03-26T04:33:21.118Z,32.77
2018-03-26T04:35:48.884Z,32.97
2018-03-26T04:38:16.853Z,33.57
2018-03-26T04:40:44.568Z,36.20
2018-03-26T04:43:12.382Z,34.77
2018-03-26T04:45:40.147Z,33.70
2018-03-26T04:48:08.014Z,34.53
2018-03-26T04:50:35.740Z,35.13
2018-03-26T04:53:03.543Z,36.00
2018-03-26T04:55:31.307Z,40.57
2018-03-26T04:57:59.073Z,34.87
2018-03-26T05:00:26.799Z,33.27
2018-03-26T05:02:54.539Z,33.80
2018-03-26T05:05:22.365Z,32.40
2018-03-26T05:07:50.199Z,35.87
2018-03-26T05:10:17.996Z,33.83
2018-03-26T05:12:45.761Z,32.00
2018-03-26T05:15:13.526Z,36.40
2018-03-26T05:17:41.391Z,36.13
2018-03-26T05:20:09.161Z,35.10
2018-03-26T05:22:37.022Z,36.63
2018-03-26T05:25:04.841Z,36.67
2018-03-26T05:27:32.654Z,36.87
2018-03-26T05:30:00.484Z,35.97
2018-03-26T05:32:28.237Z,37.50
2018-03-26T05:34:55.910Z,35.67
2018-03-26T05:37:23.711Z,33.57
2018-03-26T05:39:51.579Z,35.30
2018-03-26T05:42:19.444Z,33.23
2018-03-26T05:44:47.166Z,31.80
2018-03-26T05:47:14.863Z,32.13
2018-03-26T05:49:42.635Z,34.47
2018-03-26T05:52:10.504Z,37.30
2018-03-26T05:54:38.360Z,34.60
2018-03-26T05:57:06.145Z,36.30
2018-03-26T05:59:34.002Z,37.70
2018-03-26T06:02:01.767Z,38.27
2018-03-26T06:04:29.633Z,35.00
2018-03-26T06:06:57.292Z,36.23
2018-03-26T06:09:25.161Z,37.30
2018-03-26T06:11:52.928Z,39.33
2018-03-26T06:14:20.792Z,40.03
2018-03-26T06:17:00.435Z,38.30
2018-03-26T06:19:28.235Z,39.70
2018-03-26T06:21:55.974Z,39.70
2018-03-26T06:24:23.829Z,41.63
2018-03-26T06:26:51.698Z,43.57
2018-03-26T06:29:19.539Z,42.60
2018-03-26T06:31:47.283Z,40.57
2018-03-26T06:34:15.196Z,43.80
2018-03-26T06:39:49.300Z,44.50
2018-03-26T06:42:17.093Z,42.87
2018-03-26T06:44:44.961Z,45.33
2018-03-26T06:47:12.790Z,44.23
2018-03-26T06:49:40.552Z,45.00
2018-03-26T06:52:08.255Z,46.20
2018-03-26T06:54:36.123Z,47.23
2018-03-26T06:57:03.896Z,47.53
2018-03-26T06:59:31.871Z,48.93
2018-03-26T07:01:59.618Z,43.87
2018-03-26T07:04:27.563Z,47.40
2018-03-26T07:06:55.320Z,45.10
2018-03-26T07:09:23.162Z,47.63
2018-03-26T07:11:50.880Z,48.63
2018-03-26T07:14:18.748Z,50.47
2018-03-26T07:16:46.464Z,47.40
2018-03-26T07:19:14.224Z,50.33
2018-03-26T07:21:42.069Z,48.57
2018-03-26T07:24:09.808Z,50.57
2018-03-26T07:26:37.569Z,48.80
2018-03-26T07:29:05.436Z,79.13
2018-03-26T07:31:33.157Z,69.60
2018-03-26T07:34:00.965Z,60.87
2018-03-26T07:36:28.730Z,45.47
2018-03-26T07:38:56.459Z,47.00
2018-03-26T07:41:24.159Z,50.50
2018-03-26T07:43:52.126Z,49.17
2018-03-26T07:46:19.800Z,51.90
2018-03-26T07:48:47.657Z,45.40
2018-03-26T07:51:15.614Z,47.17
2018-03-26T07:53:43.355Z,49.33
2018-03-26T07:56:11.154Z,46.87
2018-03-26T07:58:39.019Z,46.97
2018-03-26T08:01:06.728Z,49.03
2018-03-26T08:03:34.651Z,48.87
2018-03-26T08:06:02.363Z,50.93
2018-03-26T08:08:30.184Z,47.40
2018-03-26T08:10:57.944Z,49.20
2018-03-26T08:13:25.809Z,47.80
2018-03-26T08:15:53.575Z,49.20
2018-03-26T08:18:21.442Z,51.67
2018-03-26T08:20:49.209Z,54.33
2018-03-26T08:23:17.073Z,48.33
2018-03-26T08:25:44.793Z,49.53
2018-03-26T08:28:12.602Z,49.90
2018-03-26T08:30:40.560Z,46.67
2018-03-26T08:33:08.394Z,49.73
2018-03-26T08:35:36.202Z,49.43
2018-03-26T08:38:03.974Z,48.17
2018-03-26T08:40:31.699Z,51.70
2018-03-26T08:42:59.458Z,50.30
2018-03-26T08:45:27.261Z,52.10
2018-03-26T08:47:54.967Z,48.00
2018-03-26T08:50:22.921Z,49.40
2018-03-26T08:52:50.759Z,50.67
2018-03-26T08:55:18.696Z,54.00
2018-03-26T08:57:46.500Z,52.70
2018-03-26T09:00:14.448Z,48.27
2018-03-26T09:02:42.329Z,48.47
2018-03-26T09:05:10.255Z,49.60
2018-03-26T09:07:38.062Z,52.13
2018-03-26T09:10:05.929Z,58.17
2018-03-26T09:12:33.654Z,51.30
2018-03-26T09:15:01.405Z,55.87
2018-03-26T09:17:29.229Z,55.60
2018-03-26T09:19:57.192Z,55.73
2018-03-26T09:22:24.957Z,60.40
2018-03-26T09:24:52.723Z,62.90
2018-03-26T09:27:20.459Z,63.00
2018-03-26T09:29:48.198Z,65.60
2018-03-26T09:32:16.023Z,70.60
2018-03-26T09:34:43.836Z,69.53
2018-03-26T09:37:11.642Z,71.50
2018-03-26T09:39:39.375Z,68.43
2018-03-26T09:42:07.189Z,73.93
2018-03-26T09:44:34.997Z,64.80
2018-03-26T09:47:02.809Z,69.20
2018-03-26T09:49:30.670Z,67.70
2018-03-26T09:51:58.400Z,67.47
2018-03-26T09:54:26.164Z,71.20
2018-03-26T09:56:53.969Z,75.27
2018-03-26T09:59:21.831Z,70.40
2018-03-26T10:01:55.190Z,69.70
2018-03-26T10:04:22.991Z,71.77
2018-03-26T10:06:50.759Z,74.87
2018-03-26T10:09:18.628Z,72.73
2018-03-26T10:11:46.330Z,74.10
2018-03-26T10:14:14.152Z,71.97
2018-03-26T10:16:41.918Z,74.20
2018-03-26T10:19:09.649Z,76.23
2018-03-26T10:21:37.456Z,72.90
2018-03-26T10:24:05.291Z,67.27
2018-03-26T10:26:33.027Z,70.83
2018-03-26T10:29:00.794Z,75.80
2018-03-26T10:31:28.605Z,69.57
2018-03-26T10:33:56.472Z,73.03
2018-03-26T10:36:24.201Z,66.80
2018-03-26T10:38:52.001Z,67.07
2018-03-26T10:41:19.764Z,73.13
2018-03-26T10:43:47.636Z,63.90
2018-03-26T10:46:15.500Z,59.07
2018-03-26T10:48:43.366Z,63.40
2018-03-26T10:51:11.092Z,62.43
2018-03-26T10:53:38.899Z,60.93
2018-03-26T10:56:06.726Z,57.60
2018-03-26T10:58:34.464Z,54.43
2018-03-26T11:01:02.187Z,58.60
2018-03-26T11:03:30.067Z,58.93
2018-03-26T11:05:57.824Z,60.33
2018-03-26T11:08:25.565Z,54.80
2018-03-26T11:10:53.349Z,52.80
2018-03-26T11:13:21.093Z,62.40
2018-03-26T11:15:48.834Z,64.50
2018-03-26T11:18:16.641Z,52.37
2018-03-26T11:20:44.507Z,59.80
2018-03-26T11:23:12.235Z,53.97
2018-03-26T11:25:40.038Z,47.57
2018-03-26T11:28:07.903Z,50.23
2018-03-26T11:30:35.711Z,49.17
2018-03-26T11:33:03.431Z,49.13
2018-03-26T11:35:31.197Z,48.07
2018-03-26T11:37:58.969Z,47.00
2018-03-26T11:40:26.830Z,52.93
2018-03-26T11:42:54.592Z,53.17
2018-03-26T11:45:22.459Z,51.17
2018-03-26T11:47:50.179Z,52.03
2018-03-26T11:50:17.881Z,49.43
2018-03-26T11:52:45.610Z,53.97
2018-03-26T11:55:13.359Z,51.63
2018-03-26T11:57:41.068Z,46.80
2018-03-26T12:00:08.841Z,48.80
2018-03-26T12:02:36.609Z,49.10
2018-03-26T12:05:04.474Z,51.50
2018-03-26T12:07:32.193Z,47.80
2018-03-26T12:10:00.001Z,44.10
2018-03-26T12:12:27.779Z,46.20
2018-03-26T12:14:55.539Z,43.30
2018-03-26T12:17:23.294Z,43.53
2018-03-26T12:22:55.079Z,41.27
2018-03-26T12:25:23.056Z,40.87
2018-03-26T12:30:56.665Z,38.43
2018-03-26T12:33:24.390Z,41.13
2018-03-26T12:35:59.888Z,34.87
2018-03-26T12:38:27.530Z,37.00
2018-03-26T12:40:58.117Z,34.43
2018-03-26T12:43:25.886Z,36.50
2018-03-26T12:46:05.472Z,33.47
2018-03-26T12:48:33.236Z,33.53
2018-03-26T12:51:13.095Z,26.30
2018-03-26T12:53:40.881Z,27.70
2018-03-26T12:56:08.718Z,30.97
2018-03-26T12:58:45.079Z,27.07
2018-03-26T13:01:24.836Z,24.93
2018-03-26T13:03:52.489Z,21.93
2018-03-26T13:06:20.306Z,25.33
2018-03-26T13:08:48.120Z,22.20
2018-03-26T13:11:15.986Z,19.67
2018-03-26T13:13:43.728Z,21.00
2018-03-26T13:16:11.515Z,19.90
2018-03-26T13:18:39.280Z,20.53
2018-03-26T13:21:07.147Z,21.30
2018-03-26T13:23:34.911Z,19.43
2018-03-26T13:26:02.779Z,19.83
2018-03-26T13:28:30.507Z,20.60
2018-03-26T13:30:58.254Z,17.27
2018-03-26T13:33:26.071Z,15.43
2018-03-26T13:35:53.939Z,14.13
2018-03-26T13:38:21.655Z,17.77
2018-03-26T13:40:49.472Z,17.40
2018-03-26T13:43:17.231Z,18.83
2018-03-26T13:45:45.082Z,18.80
2018-03-26T13:48:12.864Z,17.97
2018-03-26T13:50:40.730Z,14.40
2018-03-26T13:53:08.384Z,15.70
2018-03-26T13:55:36.112Z,13.80
2018-03-26T13:58:03.921Z,16.87
2018-03-26T14:00:31.788Z,15.70
2018-03-26T14:02:59.552Z,16.10
2018-03-26T14:05:27.419Z,14.50
2018-03-26T14:07:55.151Z,14.93
2018-03-26T14:10:34.620Z,15.80
2018-03-26T14:13:14.307Z,15.40
2018-03-26T14:15:53.813Z,17.87
2018-03-26T14:18:21.575Z,15.37
2018-03-26T14:20:49.329Z,18.63
2018-03-26T14:23:17.093Z,17.20
2018-03-26T14:25:45.078Z,15.07
2018-03-26T14:28:12.783Z,17.03
2018-03-26T14:30:40.553Z,17.90
2018-03-26T14:33:08.359Z,16.60
2018-03-26T14:35:43.781Z,16.03
2018-03-26T14:38:11.569Z,16.23
2018-03-26T14:40:39.436Z,15.43
2018-03-26T14:43:07.211Z,15.00
2018-03-26T14:45:35.169Z,16.13
2018-03-26T14:48:03.038Z,18.47
2018-03-26T14:50:30.800Z,15.40
2018-03-26T14:52:58.623Z,14.47
2018-03-26T14:55:26.436Z,24.97
2018-03-26T14:57:54.298Z,17.00
2018-03-26T15:00:22.062Z,14.60
2018-03-26T15:02:50.057Z,14.20
2018-03-26T15:05:17.810Z,12.87
2018-03-26T15:07:45.632Z,14.10
2018-03-26T15:10:13.387Z,11.60
2018-03-26T15:12:41.089Z,10.20
2018-03-26T15:15:08.854Z,10.93
2018-03-26T15:17:36.690Z,10.60
2018-03-26T15:20:04.490Z,12.53
2018-03-26T15:22:32.354Z,10.73
2018-03-26T15:25:00.117Z,10.03
2018-03-26T15:27:28.036Z,9.00
2018-03-26T15:29:55.748Z,8.17
2018-03-26T15:32:23.629Z,9.30
2018-03-26T15:34:51.392Z,8.60
2018-03-26T15:37:19.348Z,7.93
2018-03-26T15:39:47.067Z,8.70
2018-03-26T15:42:14.776Z,8.00
2018-03-26T15:44:42.540Z,10.00
2018-03-26T15:47:10.407Z,8.00
2018-03-26T15:49:38.278Z,7.73
2018-03-26T15:52:06.139Z,8.20
2018-03-26T15:54:33.911Z,8.83
2018-03-26T15:57:01.745Z,7.17
2018-03-26T15:59:29.536Z,8.70
2018-03-26T16:01:56.787Z,7.70
2018-03-26T16:04:24.552Z,7.80
2018-03-26T16:06:52.420Z,10.80
2018-03-26T16:09:20.146Z,9.30
2018-03-26T16:11:47.946Z,9.97
2018-03-26T16:14:15.685Z,10.13
2018-03-26T16:16:43.478Z,9.97
2018-03-26T16:19:11.242Z,10.83
2018-03-26T16:21:39.107Z,11.10
2018-03-26T16:24:06.823Z,11.17
2018-03-26T16:26:34.634Z,11.77
2018-03-26T16:29:02.416Z,12.43
2018-03-26T16:31:30.267Z,12.00
2018-03-26T16:33:57.944Z,11.67
2018-03-26T16:36:25.801Z,11.13
2018-03-26T16:38:53.458Z,10.50
2018-03-26T16:41:33.307Z,10.10
2018-03-26T16:44:01.073Z,10.37
2018-03-26T16:46:28.938Z,10.77
2018-03-26T16:48:56.708Z,10.77
2018-03-26T16:51:24.368Z,9.40
2018-03-26T16:53:52.127Z,10.63
2018-03-26T16:56:19.894Z,13.20
2018-03-26T16:58:47.760Z,12.17
2018-03-26T17:01:15.497Z,10.93
2018-03-26T17:03:43.359Z,11.67
2018-03-26T17:06:11.157Z,11.70
2018-03-26T17:08:39.024Z,11.37
2018-03-26T17:11:06.716Z,10.67
2018-03-26T17:13:34.556Z,10.73
2018-03-26T17:16:02.316Z,10.70
2018-03-26T17:18:30.190Z,12.33
2018-03-26T17:20:57.947Z,19.10
2018-03-26T17:23:25.815Z,12.23
2018-03-26T17:25:53.530Z,10.53
2018-03-26T17:28:21.283Z,9.67
2018-03-26T17:30:49.109Z,10.50
2018-03-26T17:33:17.011Z,10.00
2018-03-26T17:35:44.943Z,9.73
2018-03-26T17:38:12.816Z,10.00
2018-03-26T17:40:40.577Z,10.67
2018-03-26T17:43:08.243Z,9.60
2018-03-26T17:45:35.959Z,10.00
2018-03-26T17:48:03.973Z,8.63
2018-03-26T17:50:31.738Z,8.77
2018-03-26T17:52:59.690Z,10.17
2018-03-26T17:55:27.471Z,7.77
2018-03-26T17:57:55.335Z,6.73
2018-03-26T18:00:23.045Z,6.40
2018-03-26T18:02:50.901Z,6.17
2018-03-26T18:05:18.629Z,5.83
2018-03-26T18:07:46.458Z,6.30
2018-03-26T18:10:14.161Z,5.63
2018-03-26T18:12:42.023Z,5.70
2018-03-26T18:15:09.736Z,9.40
2018-03-26T18:17:37.513Z,5.20
2018-03-26T18:20:05.393Z,4.67
2018-03-26T18:22:33.189Z,4.90
2018-03-26T18:25:00.903Z,5.90
2018-03-26T18:27:28.713Z,5.80
2018-03-26T18:29:56.375Z,5.87
2018-03-26T18:32:24.139Z,4.47
2018-03-26T18:34:51.868Z,4.30
2018-03-26T18:37:19.612Z,4.73
2018-03-26T18:39:47.331Z,4.30
2018-03-26T18:42:15.094Z,7.13
2018-03-26T18:44:42.961Z,5.17
2018-03-26T18:47:10.726Z,4.50
2018-03-26T18:49:38.696Z,4.83
2018-03-26T18:52:06.410Z,4.13
2018-03-26T18:54:34.224Z,4.33
2018-03-26T18:57:02.002Z,4.27
2018-03-26T18:59:29.856Z,4.03
2018-03-26T19:01:57.620Z,3.57
2018-03-26T19:04:25.487Z,3.70
2018-03-26T19:06:53.144Z,3.67
2018-03-26T19:09:20.812Z,4.07
2018-03-26T19:11:48.468Z,3.97
2018-03-26T19:14:16.236Z,4.77
2018-03-26T19:16:43.973Z,4.73
2018-03-26T19:19:11.766Z,4.43
2018-03-26T19:21:39.530Z,4.80
2018-03-26T19:24:07.298Z,5.07
2018-03-26T19:26:35.058Z,6.60
2018-03-26T19:29:02.788Z,5.07
2018-03-26T19:31:30.553Z,7.03
2018-03-26T19:33:58.264Z,6.83
2018-03-26T19:36:25.917Z,5.40
2018-03-26T19:38:53.747Z,8.83
2018-03-26T19:41:21.544Z,6.03
2018-03-26T19:43:49.255Z,6.43
2018-03-26T19:46:16.971Z,6.40
2018-03-26T19:48:44.814Z,5.60
2018-03-26T19:51:12.679Z,5.57
2018-03-26T19:53:40.468Z,5.63
2018-03-26T19:56:08.184Z,5.03
2018-03-26T19:58:35.997Z,5.73
2018-03-26T20:01:03.762Z,5.07
2018-03-26T20:03:31.628Z,5.50
2018-03-26T20:05:59.355Z,6.30
2018-03-26T20:08:27.161Z,6.60
2018-03-26T20:10:54.860Z,5.40
2018-03-26T20:13:22.682Z,5.80
2018-03-26T20:15:50.444Z,4.40
2018-03-26T20:18:18.111Z,4.57
2018-03-26T20:20:45.987Z,5.60
2018-03-26T20:23:13.888Z,6.90
2018-03-26T20:25:41.717Z,8.23
2018-03-26T20:28:09.587Z,7.50
2018-03-26T20:30:37.345Z,7.27
2018-03-26T20:33:05.211Z,6.07
2018-03-26T20:35:32.976Z,4.80
2018-03-26T20:38:00.817Z,5.30
2018-03-26T20:40:28.662Z,5.23
2018-03-26T20:42:56.368Z,4.33
2018-03-26T20:45:24.134Z,5.77
2018-03-26T20:47:51.962Z,7.40
2018-03-26T20:50:19.775Z,8.90
2018-03-26T20:52:47.437Z,9.97
2018-03-26T20:55:15.295Z,8.90
2018-03-26T20:57:42.999Z,8.30
2018-03-26T21:00:10.825Z,7.73
2018-03-26T21:02:38.533Z,6.80
2018-03-26T21:05:06.354Z,6.03
2018-03-26T21:07:34.122Z,7.20
2018-03-26T21:10:01.932Z,5.30
2018-03-26T21:12:29.714Z,4.30
2018-03-26T21:14:57.509Z,12.30
2018-03-26T21:17:25.283Z,5.87
2018-03-26T21:19:53.041Z,4.13
2018-03-26T21:22:20.704Z,5.00
2018-03-26T21:24:48.530Z,5.10
2018-03-26T21:27:16.335Z,6.07
2018-03-26T21:29:44.168Z,6.50
2018-03-26T21:32:11.953Z,3.67
2018-03-26T21:34:39.772Z,6.40
2018-03-26T21:37:07.598Z,4.37
2018-03-26T21:39:35.363Z,4.30
2018-03-26T21:42:03.023Z,4.50
2018-03-26T21:44:30.890Z,4.90
2018-03-26T21:46:58.662Z,4.30
2018-03-26T21:49:26.420Z,4.73
2018-03-26T21:51:54.136Z,5.83
2018-03-26T21:54:21.910Z,5.40
2018-03-26T21:56:49.713Z,5.00
2018-03-26T21:59:17.476Z,5.23
2018-03-26T22:01:45.248Z,5.33
2018-03-26T22:04:13.008Z,4.90
2018-03-26T22:06:40.874Z,6.60
2018-03-26T22:09:08.944Z,5.20
2018-03-26T22:11:36.709Z,6.83
2018-03-26T22:14:04.364Z,6.00
2018-03-26T22:16:32.128Z,7.10
2018-03-26T22:18:59.843Z,7.03
2018-03-26T22:21:27.659Z,7.47
2018-03-26T22:23:55.429Z,6.70
2018-03-26T22:26:23.141Z,6.97
2018-03-26T22:28:51.066Z,6.23
2018-03-26T22:31:18.825Z,6.20
2018-03-26T22:33:46.588Z,6.33
2018-03-26T22:36:14.308Z,6.17
2018-03-26T22:38:42.118Z,5.37
2018-03-26T22:41:09.881Z,6.47
2018-03-26T22:43:37.836Z,6.60
2018-03-26T22:46:05.616Z,5.37
2018-03-26T22:48:33.380Z,5.23
2018-03-26T22:51:01.145Z,5.37
2018-03-26T22:53:29.012Z,6.47
2018-03-26T22:55:56.713Z,5.50
2018-03-26T22:58:24.544Z,7.50
2018-03-26T23:00:52.310Z,5.73
2018-03-26T23:03:20.037Z,5.63
2018-03-26T23:05:47.829Z,6.90
2018-03-26T23:08:15.497Z,5.17
2018-03-26T23:10:43.219Z,5.70
2018-03-26T23:13:11.026Z,6.10
2018-03-26T23:15:38.891Z,7.60
2018-03-26T23:18:06.544Z,6.00
2018-03-26T23:20:34.208Z,5.23
2018-03-26T23:23:01.877Z,5.67
2018-03-26T23:25:29.742Z,7.53
2018-03-26T23:27:57.579Z,5.30
2018-03-26T23:30:25.275Z,5.70
2018-03-26T23:32:52.985Z,6.47
2018-03-26T23:35:20.700Z,7.80
2018-03-26T23:37:48.568Z,6.67
2018-03-26T23:40:16.284Z,6.37
2018-03-26T23:42:43.992Z,5.70
2018-03-26T23:45:11.717Z,5.80
2018-03-26T23:47:39.526Z,8.60
2018-03-26T23:50:07.390Z,6.60
2018-03-26T23:52:35.103Z,6.33
2018-03-26T23:55:02.920Z,6.30
2018-03-26T23:57:30.682Z,5.97
2018-03-26T23:59:58.448Z,6.53
